Time;durP1;ratioP1;P1;durP2;ratioP2;P2;SDS_P1;SDS_P2;PMS_P1;PMS_P2;Temp;Humidity;BMP_temperature;BMP_pressure;BME280_temperature;BME280_humidity;BME280_pressure;Samples;Min_cycle;Max_cycle;Signal;HPM_P1;HPM_P2
2022/11/27 00:01:57;;;;;;;1999.90;999.90;;;;;;;;;;5055502;28;20236;-77
2022/11/27 00:04:25;;;;;;;1999.90;999.90;;;;;;;;;;5061203;28;20259;-76
2022/11/27 00:06:53;;;;;;;1999.90;999.90;;;;;;;;;;5061893;28;20234;-77
2022/11/27 00:09:21;;;;;;;1999.90;999.90;;;;;;;;;;5064749;28;20589;-77
2022/11/27 00:11:48;;;;;;;1999.90;999.90;;;;;;;;;;5065429;28;20778;-77
2022/11/27 00:14:18;;;;;;;1999.90;999.90;;;;;;;;;;5063755;28;20810;-76
2022/11/27 00:16:46;;;;;;;1999.90;999.90;;;;;;;;;;5065653;28;20580;-77
2022/11/27 00:19:14;;;;;;;1999.90;999.90;;;;;;;;;;5089489;27;20684;-77
2022/11/27 00:21:42;;;;;;;1999.90;999.90;;;;;;;;;;5064362;28;20231;-76
2022/11/27 00:24:10;;;;;;;1999.90;999.90;;;;;;;;;;5068779;28;20323;-77
2022/11/27 00:26:38;;;;;;;1999.90;999.90;;;;;;;;;;5065776;28;20860;-77
2022/11/27 00:29:06;;;;;;;1999.90;999.90;;;;;;;;;;5089001;27;20224;-77
2022/11/27 00:31:36;;;;;;;1999.90;999.90;;;;;;;;;;5049089;28;20220;-77
2022/11/27 00:34:05;;;;;;;1999.90;999.90;;;;;;;;;;5049517;28;20259;-77
2022/11/27 00:36:34;;;;;;;1999.90;999.90;;;;;;;;;;5066957;28;20224;-77
2022/11/27 00:39:02;;;;;;;1999.90;999.90;;;;;;;;;;5068389;28;21268;-77
2022/11/27 00:41:30;;;;;;;1999.90;999.90;;;;;;;;;;5065974;28;20230;-78
2022/11/27 00:43:58;;;;;;;1999.90;999.90;;;;;;;;;;5062761;28;20240;-77
2022/11/27 00:46:27;;;;;;;1999.90;999.90;;;;;;;;;;5061906;28;20239;-78
2022/11/27 00:48:58;;;;;;;1999.90;999.90;;;;;;;;;;5066360;28;20231;-76
2022/11/27 00:51:26;;;;;;;1999.90;999.90;;;;;;;;;;5066443;28;20228;-75
2022/11/27 00:53:54;;;;;;;1999.90;999.90;;;;;;;;;;5063260;28;20235;-75
2022/11/27 00:56:23;;;;;;;1999.90;999.90;;;;;;;;;;5038944;28;20726;-76
2022/11/27 00:58:51;;;;;;;1999.90;999.90;;;;;;;;;;5048498;28;20225;-76
2022/11/27 01:01:20;;;;;;;1999.90;999.90;;;;;;;;;;5065357;28;20306;-76
2022/11/27 01:03:48;;;;;;;1999.90;999.90;;;;;;;;;;5047073;28;20839;-76
2022/11/27 01:06:18;;;;;;;1999.90;999.90;;;;;;;;;;5064814;28;20244;-76
2022/11/27 01:08:45;;;;;;;1999.90;999.90;;;;;;;;;;5068250;28;20236;-76
2022/11/27 01:11:14;;;;;;;1999.90;999.90;;;;;;;;;;5064263;28;20599;-77
2022/11/27 01:13:42;;;;;;;1999.90;999.90;;;;;;;;;;5063867;28;20291;-77
2022/11/27 01:16:11;;;;;;;1999.90;999.90;;;;;;;;;;5065495;28;20252;-76
2022/11/27 01:18:40;;;;;;;1999.90;999.90;;;;;;;;;;5065782;28;20263;-76
2022/11/27 01:21:08;;;;;;;1999.90;999.90;;;;;;;;;;5065447;28;20727;-75
2022/11/27 01:23:37;;;;;;;1999.90;999.90;;;;;;;;;;5059306;28;20704;-76
2022/11/27 01:26:07;;;;;;;1999.90;999.90;;;;;;;;;;5065598;28;20233;-75
2022/11/27 01:28:37;;;;;;;1999.90;999.90;;;;;;;;;;5066341;28;20231;-75
2022/11/27 01:31:05;;;;;;;1999.90;999.90;;;;;;;;;;5092181;27;20250;-76
2022/11/27 01:33:33;;;;;;;1999.90;999.90;;;;;;;;;;5064952;28;20231;-76
2022/11/27 01:36:02;;;;;;;1999.90;999.90;;;;;;;;;;5064095;28;20228;-77
2022/11/27 01:38:30;;;;;;;1999.90;999.90;;;;;;;;;;5060871;28;20232;-77
2022/11/27 01:41:01;;;;;;;1999.90;999.90;;;;;;;;;;5065245;28;20228;-76
2022/11/27 01:43:39;;;;;;;1999.90;999.90;;;;;;;;;;5067228;28;20314;-76
2022/11/27 01:46:12;;;;;;;1999.90;999.90;;;;;;;;;;5062427;28;20239;-77
2022/11/27 01:48:40;;;;;;;1999.90;999.90;;;;;;;;;;5063401;28;20233;-77
2022/11/27 01:51:08;;;;;;;1999.90;999.90;;;;;;;;;;5064788;28;20224;-77
2022/11/27 01:53:36;;;;;;;1999.90;999.90;;;;;;;;;;5091659;27;20236;-77
2022/11/27 01:56:05;;;;;;;1999.90;999.90;;;;;;;;;;5058211;28;21009;-76
2022/11/27 01:58:34;;;;;;;1999.90;999.90;;;;;;;;;;5062713;28;20310;-77
2022/11/27 02:01:02;;;;;;;1999.90;999.90;;;;;;;;;;5064483;28;20223;-77
2022/11/27 02:03:30;;;;;;;1999.90;999.90;;;;;;;;;;5063085;28;20232;-77
2022/11/27 02:05:58;;;;;;;1999.90;999.90;;;;;;;;;;5064719;28;20749;-77
2022/11/27 02:08:26;;;;;;;1999.90;999.90;;;;;;;;;;5058183;28;20223;-77
2022/11/27 02:10:54;;;;;;;1999.90;999.90;;;;;;;;;;5063297;28;20230;-77
2022/11/27 02:13:28;;;;;;;1999.90;999.90;;;;;;;;;;5061455;28;20228;-76
2022/11/27 02:15:59;;;;;;;1999.90;999.90;;;;;;;;;;5064614;28;20326;-77
2022/11/27 02:18:30;;;;;;;1999.90;999.90;;;;;;;;;;5065550;28;20282;-76
2022/11/27 02:21:02;;;;;;;1999.90;999.90;;;;;;;;;;5062677;28;20231;-76
2022/11/27 02:23:48;;;;;;;1999.90;999.90;;;;;;;;;;5064692;28;20266;-76
2022/11/27 02:26:31;;;;;;;1999.90;999.90;;;;;;;;;;5065211;28;20250;-77
2022/11/27 02:29:02;;;;;;;1999.90;999.90;;;;;;;;;;5065274;28;20718;-77
2022/11/27 02:31:36;;;;;;;1999.90;999.90;;;;;;;;;;5064438;28;20269;-76
2022/11/27 02:34:21;;;;;;;1999.90;999.90;;;;;;;;;;5062845;28;20232;-77
2022/11/27 02:36:50;;;;;;;1999.90;999.90;;;;;;;;;;5064987;28;20236;-76
2022/11/27 02:39:20;;;;;;;1999.90;999.90;;;;;;;;;;5047842;28;20764;-75
2022/11/27 02:41:50;;;;;;;1999.90;999.90;;;;;;;;;;5066897;28;20267;-76
2022/11/27 02:44:20;;;;;;;1999.90;999.90;;;;;;;;;;5063265;28;20231;-77
2022/11/27 02:46:49;;;;;;;1999.90;999.90;;;;;;;;;;5062664;28;20236;-76
2022/11/27 02:49:18;;;;;;;1999.90;999.90;;;;;;;;;;5064546;28;20230;-78
2022/11/27 02:51:48;;;;;;;1999.90;999.90;;;;;;;;;;5068980;28;20961;-78
2022/11/27 02:54:19;;;;;;;1999.90;999.90;;;;;;;;;;5068169;28;20240;-77
2022/11/27 02:56:48;;;;;;;1999.90;999.90;;;;;;;;;;5091739;27;20236;-78
2022/11/27 02:59:16;;;;;;;1999.90;999.90;;;;;;;;;;5063880;28;20227;-78
2022/11/27 03:01:48;;;;;;;1999.90;999.90;;;;;;;;;;5059996;28;20255;-78
2022/11/27 03:04:20;;;;;;;1999.90;999.90;;;;;;;;;;5058770;28;20236;-78
2022/11/27 03:06:50;;;;;;;1999.90;999.90;;;;;;;;;;5048392;28;20262;-78
2022/11/27 03:09:20;;;;;;;1999.90;999.90;;;;;;;;;;5049707;28;20253;-78
2022/11/27 03:11:48;;;;;;;1999.90;999.90;;;;;;;;;;5083112;28;20223;-79
2022/11/27 03:14:16;;;;;;;1999.90;999.90;;;;;;;;;;5067697;28;20246;-79
2022/11/27 03:16:49;;;;;;;1999.90;999.90;;;;;;;;;;5070635;28;20766;-78
2022/11/27 03:19:19;;;;;;;1999.90;999.90;;;;;;;;;;5072034;28;20227;-78
2022/11/27 03:21:49;;;;;;;1999.90;999.90;;;;;;;;;;5067167;28;20311;-77
2022/11/27 03:24:16;;;;;;;1999.90;999.90;;;;;;;;;;5046897;28;20224;-78
2022/11/27 03:26:44;;;;;;;1999.90;999.90;;;;;;;;;;5068603;28;20251;-77
2022/11/27 03:29:13;;;;;;;1999.90;999.90;;;;;;;;;;5050668;28;20227;-77
2022/11/27 03:31:41;;;;;;;1999.90;999.90;;;;;;;;;;5067341;28;20224;-77
2022/11/27 03:34:11;;;;;;;1999.90;999.90;;;;;;;;;;5089993;27;20223;-77
2022/11/27 03:36:39;;;;;;;1999.90;999.90;;;;;;;;;;5061329;28;20608;-77
2022/11/27 03:39:06;;;;;;;1999.90;999.90;;;;;;;;;;5061745;28;20232;-77
2022/11/27 03:41:40;;;;;;;1999.90;999.90;;;;;;;;;;5063438;28;20236;-77
2022/11/27 03:44:13;;;;;;;1999.90;999.90;;;;;;;;;;5068849;28;20241;-77
2022/11/27 03:46:46;;;;;;;1999.90;999.90;;;;;;;;;;5062624;28;20250;-77
2022/11/27 03:49:20;;;;;;;1999.90;999.90;;;;;;;;;;5048598;28;20289;-77
2022/11/27 03:51:52;;;;;;;1999.90;999.90;;;;;;;;;;5061268;28;20223;-78
2022/11/27 03:54:23;;;;;;;1999.90;999.90;;;;;;;;;;5062505;28;20609;-77
2022/11/27 03:56:56;;;;;;;1999.90;999.90;;;;;;;;;;5060181;28;20722;-78
2022/11/27 03:59:26;;;;;;;1999.90;999.90;;;;;;;;;;5061001;28;20228;-77
2022/11/27 04:01:53;;;;;;;1999.90;999.90;;;;;;;;;;5063118;28;20609;-79
2022/11/27 04:04:23;;;;;;;1999.90;999.90;;;;;;;;;;5060946;28;20335;-78
2022/11/27 04:06:51;;;;;;;1999.90;999.90;;;;;;;;;;5064712;28;20271;-78
2022/11/27 04:09:19;;;;;;;1999.90;999.90;;;;;;;;;;5058040;28;20736;-78
2022/11/27 04:11:47;;;;;;;1999.90;999.90;;;;;;;;;;5060584;28;20215;-79
2022/11/27 04:14:15;;;;;;;1999.90;999.90;;;;;;;;;;5057861;28;20238;-78
2022/11/27 04:16:43;;;;;;;1999.90;999.90;;;;;;;;;;5067098;28;21420;-79
2022/11/27 04:19:11;;;;;;;1999.90;999.90;;;;;;;;;;5067174;28;20293;-79
2022/11/27 04:21:40;;;;;;;1999.90;999.90;;;;;;;;;;5069963;28;20274;-79
2022/11/27 04:24:08;;;;;;;1999.90;999.90;;;;;;;;;;5068271;28;20236;-79
2022/11/27 04:26:36;;;;;;;1999.90;999.90;;;;;;;;;;5065793;28;20734;-78
2022/11/27 04:29:03;;;;;;;1999.90;999.90;;;;;;;;;;5065588;28;20298;-77
2022/11/27 04:31:31;;;;;;;1999.90;999.90;;;;;;;;;;5065827;28;20226;-77
2022/11/27 04:33:59;;;;;;;1999.90;999.90;;;;;;;;;;5094788;27;20241;-78
2022/11/27 04:36:27;;;;;;;1999.90;999.90;;;;;;;;;;5065659;28;20228;-79
2022/11/27 04:38:56;;;;;;;1999.90;999.90;;;;;;;;;;5066849;28;20235;-78
2022/11/27 04:41:24;;;;;;;1999.90;999.90;;;;;;;;;;5067571;28;20226;-78
2022/11/27 04:43:52;;;;;;;1999.90;999.90;;;;;;;;;;5063930;28;20224;-78
2022/11/27 04:46:20;;;;;;;1999.90;999.90;;;;;;;;;;5063545;28;20286;-77
2022/11/27 04:48:48;;;;;;;1999.90;999.90;;;;;;;;;;5065506;28;20313;-77
2022/11/27 04:51:16;;;;;;;1999.90;999.90;;;;;;;;;;5048045;28;20271;-77
2022/11/27 04:53:43;;;;;;;1999.90;999.90;;;;;;;;;;5063250;28;20326;-77
2022/11/27 04:56:13;;;;;;;1999.90;999.90;;;;;;;;;;5064697;28;20239;-78
2022/11/27 04:58:40;;;;;;;1999.90;999.90;;;;;;;;;;5064192;28;20254;-78
2022/11/27 05:01:09;;;;;;;1999.90;999.90;;;;;;;;;;5087798;27;20223;-77
2022/11/27 05:03:36;;;;;;;1999.90;999.90;;;;;;;;;;5060422;28;20331;-77
2022/11/27 05:06:04;;;;;;;1999.90;999.90;;;;;;;;;;5058603;28;20232;-77
2022/11/27 05:08:32;;;;;;;1999.90;999.90;;;;;;;;;;5039910;28;20241;-77
2022/11/27 05:11:01;;;;;;;1999.90;999.90;;;;;;;;;;5060982;28;20224;-77
2022/11/27 05:13:30;;;;;;;1999.90;999.90;;;;;;;;;;5060627;28;20232;-77
2022/11/27 05:15:58;;;;;;;1999.90;999.90;;;;;;;;;;5063404;28;20251;-78
2022/11/27 05:18:26;;;;;;;1999.90;999.90;;;;;;;;;;5065011;28;20227;-76
2022/11/27 05:20:58;;;;;;;1999.90;999.90;;;;;;;;;;5059895;28;20719;-77
2022/11/27 05:23:26;;;;;;;1999.90;999.90;;;;;;;;;;5080884;28;20298;-78
2022/11/27 05:25:54;;;;;;;1999.90;999.90;;;;;;;;;;5064135;28;20782;-78
2022/11/27 05:28:23;;;;;;;1999.90;999.90;;;;;;;;;;5069681;28;20238;-78
2022/11/27 05:30:55;;;;;;;1999.90;999.90;;;;;;;;;;5063556;28;20244;-77
2022/11/27 05:33:23;;;;;;;1999.90;999.90;;;;;;;;;;5064862;28;20235;-78
2022/11/27 05:35:51;;;;;;;1999.90;999.90;;;;;;;;;;5065604;28;20232;-78
2022/11/27 05:38:18;;;;;;;1999.90;999.90;;;;;;;;;;5065786;28;20318;-78
2022/11/27 05:40:46;;;;;;;1999.90;999.90;;;;;;;;;;5064572;28;21159;-78
2022/11/27 05:43:14;;;;;;;1999.90;999.90;;;;;;;;;;5063772;28;20243;-77
2022/11/27 05:45:42;;;;;;;1999.90;999.90;;;;;;;;;;5066574;28;20232;-78
2022/11/27 05:48:11;;;;;;;1999.90;999.90;;;;;;;;;;5092450;27;20317;-76
2022/11/27 05:50:39;;;;;;;1999.90;999.90;;;;;;;;;;5062276;28;20227;-77
2022/11/27 05:53:07;;;;;;;1999.90;999.90;;;;;;;;;;5048929;28;20227;-76
2022/11/27 05:55:35;;;;;;;1999.90;999.90;;;;;;;;;;5061738;28;20232;-77
2022/11/27 05:58:03;;;;;;;1999.90;999.90;;;;;;;;;;5058995;28;20239;-76
2022/11/27 06:00:31;;;;;;;1999.90;999.90;;;;;;;;;;5070029;28;20249;-76
2022/11/27 06:02:58;;;;;;;1999.90;999.90;;;;;;;;;;5063233;28;20220;-76
2022/11/27 06:05:27;;;;;;;1999.90;999.90;;;;;;;;;;5062403;28;20228;-76
2022/11/27 06:07:55;;;;;;;1999.90;999.90;;;;;;;;;;5062897;28;20232;-76
2022/11/27 06:10:23;;;;;;;1999.90;999.90;;;;;;;;;;5038498;28;20319;-76
2022/11/27 06:12:51;;;;;;;1999.90;999.90;;;;;;;;;;5042430;28;20235;-76
2022/11/27 06:15:19;;;;;;;1999.90;999.90;;;;;;;;;;5060956;28;20313;-76
2022/11/27 06:17:48;;;;;;;1999.90;999.90;;;;;;;;;;5063355;28;20224;-76
2022/11/27 06:20:16;;;;;;;1999.90;999.90;;;;;;;;;;5055227;28;20259;-76
2022/11/27 06:22:45;;;;;;;1999.90;999.90;;;;;;;;;;5087933;27;20224;-76
2022/11/27 06:25:13;;;;;;;1999.90;999.90;;;;;;;;;;5062558;28;20234;-76
2022/11/27 06:27:41;;;;;;;1999.90;999.90;;;;;;;;;;5066454;28;20715;-77
2022/11/27 06:30:09;;;;;;;1999.90;999.90;;;;;;;;;;5088257;27;20698;-76
2022/11/27 06:32:37;;;;;;;1999.90;999.90;;;;;;;;;;5056280;28;20227;-76
2022/11/27 06:35:05;;;;;;;1999.90;999.90;;;;;;;;;;5061182;28;20282;-76
2022/11/27 06:37:33;;;;;;;1999.90;999.90;;;;;;;;;;5043865;28;20235;-76
2022/11/27 06:40:03;;;;;;;1999.90;999.90;;;;;;;;;;5077203;28;20228;-76
2022/11/27 06:42:31;;;;;;;1999.90;999.90;;;;;;;;;;5057051;28;20303;-76
2022/11/27 06:44:59;;;;;;;1999.90;999.90;;;;;;;;;;5042953;28;20305;-76
2022/11/27 06:47:27;;;;;;;1999.90;999.90;;;;;;;;;;5051348;28;20227;-76
2022/11/27 06:49:54;;;;;;;1999.90;999.90;;;;;;;;;;5058213;28;20235;-76
2022/11/27 06:52:22;;;;;;;1999.90;999.90;;;;;;;;;;5052241;28;20232;-76
2022/11/27 06:54:50;;;;;;;1999.90;999.90;;;;;;;;;;5062583;28;20232;-76
2022/11/27 06:57:19;;;;;;;1999.90;999.90;;;;;;;;;;5058233;28;20239;-76
2022/11/27 06:59:47;;;;;;;1999.90;999.90;;;;;;;;;;5060652;28;20236;-76
2022/11/27 07:02:16;;;;;;;1999.90;999.90;;;;;;;;;;5051209;28;20258;-75
2022/11/27 07:04:44;;;;;;;1999.90;999.90;;;;;;;;;;5084341;27;20240;-76
2022/11/27 07:07:12;;;;;;;1999.90;999.90;;;;;;;;;;5056352;28;20744;-77
2022/11/27 07:09:40;;;;;;;1999.90;999.90;;;;;;;;;;5063006;28;20397;-76
2022/11/27 07:12:08;;;;;;;1999.90;999.90;;;;;;;;;;5057522;28;20227;-77
2022/11/27 07:14:37;;;;;;;1999.90;999.90;;;;;;;;;;5066031;28;20227;-77
2022/11/27 07:17:06;;;;;;;1999.90;999.90;;;;;;;;;;5057027;28;20231;-77
2022/11/27 07:19:33;;;;;;;1999.90;999.90;;;;;;;;;;5058996;28;20755;-77
2022/11/27 07:22:01;;;;;;;1999.90;999.90;;;;;;;;;;5061663;28;20229;-77
2022/11/27 07:24:29;;;;;;;1999.90;999.90;;;;;;;;;;5058625;28;20696;-77
2022/11/27 07:26:58;;;;;;;1999.90;999.90;;;;;;;;;;5058663;28;20271;-77
2022/11/27 07:29:26;;;;;;;1999.90;999.90;;;;;;;;;;5056218;28;20243;-76
2022/11/27 07:31:55;;;;;;;1999.90;999.90;;;;;;;;;;5086226;27;20303;-76
2022/11/27 07:34:23;;;;;;;1999.90;999.90;;;;;;;;;;5060563;28;20258;-76
2022/11/27 07:36:51;;;;;;;1999.90;999.90;;;;;;;;;;5062491;28;20228;-76
2022/11/27 07:39:19;;;;;;;1999.90;999.90;;;;;;;;;;5056241;28;20315;-76
2022/11/27 07:42:06;;;;;;;1999.90;999.90;;;;;;;;;;5056467;28;21242;-76
2022/11/27 07:44:54;;;;;;;1999.90;999.90;;;;;;;;;;5060269;28;21472;-76
2022/11/27 07:47:24;;;;;;;1999.90;999.90;;;;;;;;;;5056740;28;20231;-75
2022/11/27 07:49:53;;;;;;;1999.90;999.90;;;;;;;;;;5075079;27;21004;-75
2022/11/27 07:52:21;;;;;;;1999.90;999.90;;;;;;;;;;5051095;28;20223;-73
2022/11/27 07:54:49;;;;;;;1999.90;999.90;;;;;;;;;;5058791;28;20837;-74
2022/11/27 07:57:17;;;;;;;1999.90;999.90;;;;;;;;;;5058438;28;20247;-74
2022/11/27 07:59:45;;;;;;;1999.90;999.90;;;;;;;;;;5062170;28;20227;-74
2022/11/27 08:02:14;;;;;;;1999.90;999.90;;;;;;;;;;5060000;28;20673;-73
2022/11/27 08:04:43;;;;;;;1999.90;999.90;;;;;;;;;;5059438;28;20231;-74
2022/11/27 08:07:11;;;;;;;1999.90;999.90;;;;;;;;;;5056650;28;20247;-74
2022/11/27 08:09:39;;;;;;;1999.90;999.90;;;;;;;;;;5056957;28;20229;-76
2022/11/27 08:12:07;;;;;;;1999.90;999.90;;;;;;;;;;5061726;28;20232;-75
2022/11/27 08:14:35;;;;;;;1999.90;999.90;;;;;;;;;;5057162;28;20310;-76
2022/11/27 08:17:03;;;;;;;1999.90;999.90;;;;;;;;;;5056237;28;20235;-76
2022/11/27 08:19:30;;;;;;;1999.90;999.90;;;;;;;;;;5053362;28;20286;-76
2022/11/27 08:22:00;;;;;;;1999.90;999.90;;;;;;;;;;5050185;28;20232;-77
2022/11/27 08:24:27;;;;;;;1999.90;999.90;;;;;;;;;;5055645;28;20227;-76
2022/11/27 08:26:55;;;;;;;1999.90;999.90;;;;;;;;;;5063660;28;20311;-76
2022/11/27 08:29:25;;;;;;;1999.90;999.90;;;;;;;;;;5087819;27;20417;-76
2022/11/27 08:31:59;;;;;;;1999.90;999.90;;;;;;;;;;5048263;28;20919;-75
2022/11/27 08:34:27;;;;;;;1999.90;999.90;;;;;;;;;;5066231;28;20278;-76
2022/11/27 08:36:55;;;;;;;1999.90;999.90;;;;;;;;;;5061356;28;20254;-76
2022/11/27 08:39:25;;;;;;;1999.90;999.90;;;;;;;;;;5064689;28;21042;-76
2022/11/27 08:41:53;;;;;;;1999.90;999.90;;;;;;;;;;5059343;28;20223;-76
2022/11/27 08:44:21;;;;;;;1999.90;999.90;;;;;;;;;;5061999;28;20232;-76
2022/11/27 08:46:48;;;;;;;1999.90;999.90;;;;;;;;;;5064691;28;20228;-78
2022/11/27 08:49:16;;;;;;;1999.90;999.90;;;;;;;;;;5082722;28;20232;-79
2022/11/27 08:51:44;;;;;;;1999.90;999.90;;;;;;;;;;5078708;28;20239;-78
2022/11/27 08:54:12;;;;;;;1999.90;999.90;;;;;;;;;;5068113;28;20227;-78
2022/11/27 08:56:41;;;;;;;1999.90;999.90;;;;;;;;;;5067589;28;20250;-78
2022/11/27 08:59:09;;;;;;;1999.90;999.90;;;;;;;;;;5061720;28;20229;-77
2022/11/27 09:01:37;;;;;;;1999.90;999.90;;;;;;;;;;5040311;28;20228;-77
2022/11/27 09:04:05;;;;;;;1999.90;999.90;;;;;;;;;;5056593;28;20252;-78
2022/11/27 09:06:35;;;;;;;1999.90;999.90;;;;;;;;;;5091366;28;20231;-81
2022/11/27 09:09:04;;;;;;;1999.90;999.90;;;;;;;;;;5079456;28;20234;-82
2022/11/27 09:11:33;;;;;;;1999.90;999.90;;;;;;;;;;5081961;28;20319;-80
2022/11/27 09:14:03;;;;;;;1999.90;999.90;;;;;;;;;;5101436;28;20224;-82
2022/11/27 09:16:31;;;;;;;1999.90;999.90;;;;;;;;;;5083437;28;20240;-82
2022/11/27 09:18:59;;;;;;;1999.90;999.90;;;;;;;;;;5084712;28;20243;-81
2022/11/27 09:21:29;;;;;;;1999.90;999.90;;;;;;;;;;5088030;28;20228;-82
2022/11/27 09:23:57;;;;;;;1999.90;999.90;;;;;;;;;;5096833;28;20224;-83
2022/11/27 09:26:26;;;;;;;1999.90;999.90;;;;;;;;;;5114732;27;20251;-82
2022/11/27 09:28:54;;;;;;;1999.90;999.90;;;;;;;;;;5087267;28;21092;-82
2022/11/27 09:31:24;;;;;;;1999.90;999.90;;;;;;;;;;5084803;28;20316;-82
2022/11/27 09:33:52;;;;;;;1999.90;999.90;;;;;;;;;;5086533;28;20295;-83
2022/11/27 09:36:22;;;;;;;1999.90;999.90;;;;;;;;;;5069514;28;20231;-82
2022/11/27 09:38:50;;;;;;;1999.90;999.90;;;;;;;;;;5071323;28;20784;-81
2022/11/27 09:41:26;;;;;;;1999.90;999.90;;;;;;;;;;5087132;28;20254;-82
2022/11/27 09:43:56;;;;;;;1999.90;999.90;;;;;;;;;;5085430;28;20236;-81
2022/11/27 09:46:28;;;;;;;1999.90;999.90;;;;;;;;;;5086112;28;20232;-83
2022/11/27 09:48:58;;;;;;;1999.90;999.90;;;;;;;;;;5083853;28;20236;-82
2022/11/27 09:51:30;;;;;;;1999.90;999.90;;;;;;;;;;5083069;28;20228;-82
2022/11/27 09:54:01;;;;;;;1999.90;999.90;;;;;;;;;;5088300;28;20251;-82
2022/11/27 09:56:30;;;;;;;1999.90;999.90;;;;;;;;;;5086227;28;20232;-82
2022/11/27 09:58:58;;;;;;;1999.90;999.90;;;;;;;;;;5088822;28;20227;-82
2022/11/27 10:01:29;;;;;;;1999.90;999.90;;;;;;;;;;5068868;28;20274;-82
2022/11/27 10:04:09;;;;;;;1999.90;999.90;;;;;;;;;;5084536;28;20215;-81
2022/11/27 10:06:42;;;;;;;1999.90;999.90;;;;;;;;;;5082466;28;20240;-82
2022/11/27 10:09:17;;;;;;;1999.90;999.90;;;;;;;;;;5084853;28;20242;-82
2022/11/27 10:11:48;;;;;;;1999.90;999.90;;;;;;;;;;5069829;28;20279;-82
2022/11/27 10:14:20;;;;;;;1999.90;999.90;;;;;;;;;;5083107;28;20231;-82
2022/11/27 10:16:52;;;;;;;1999.90;999.90;;;;;;;;;;5084253;28;20265;-81
2022/11/27 10:19:25;;;;;;;1999.90;999.90;;;;;;;;;;5066513;28;20238;-81
2022/11/27 10:21:55;;;;;;;1999.90;999.90;;;;;;;;;;5086234;28;20216;-81
2022/11/27 10:24:28;;;;;;;1999.90;999.90;;;;;;;;;;5075970;28;20231;-81
2022/11/27 10:26:58;;;;;;;1999.90;999.90;;;;;;;;;;5084117;28;20236;-82
2022/11/27 10:29:36;;;;;;;1999.90;999.90;;;;;;;;;;5111811;27;20238;-81
2022/11/27 10:32:11;;;;;;;1999.90;999.90;;;;;;;;;;5078490;28;20812;-82
2022/11/27 10:35:01;;;;;;;1999.90;999.90;;;;;;;;;;5065044;28;20292;-82
2022/11/27 10:37:31;;;;;;;1999.90;999.90;;;;;;;;;;5079672;28;20235;-82
2022/11/27 10:40:01;;;;;;;1999.90;999.90;;;;;;;;;;5061150;28;20223;-81
2022/11/27 10:42:34;;;;;;;1999.90;999.90;;;;;;;;;;5078976;28;20228;-82
2022/11/27 10:45:03;;;;;;;1999.90;999.90;;;;;;;;;;5067481;28;20258;-82
2022/11/27 10:47:33;;;;;;;1999.90;999.90;;;;;;;;;;5085376;28;20220;-82
2022/11/27 10:50:01;;;;;;;1999.90;999.90;;;;;;;;;;5086028;28;20246;-82
2022/11/27 10:52:29;;;;;;;1999.90;999.90;;;;;;;;;;5093317;28;20222;-83
2022/11/27 10:54:58;;;;;;;1999.90;999.90;;;;;;;;;;5086333;28;20211;-84
2022/11/27 10:57:51;;;;;;;1999.90;999.90;;;;;;;;;;5084409;28;20247;-82
2022/11/27 11:00:20;;;;;;;1999.90;999.90;;;;;;;;;;5049049;28;20216;-84
2022/11/27 11:02:59;;;;;;;1999.90;999.90;;;;;;;;;;5090469;28;20254;-82
2022/11/27 11:05:28;;;;;;;1999.90;999.90;;;;;;;;;;5090154;28;20219;-81
2022/11/27 11:08:17;;;;;;;1999.90;999.90;;;;;;;;;;5088020;28;20224;-82
2022/11/27 11:10:49;;;;;;;1999.90;999.90;;;;;;;;;;5092072;28;20670;-84
2022/11/27 11:13:19;;;;;;;1999.90;999.90;;;;;;;;;;5083275;28;20230;-83
2022/11/27 11:15:49;;;;;;;1999.90;999.90;;;;;;;;;;5066728;28;20224;-82
2022/11/27 11:18:21;;;;;;;1999.90;999.90;;;;;;;;;;5110434;27;20221;-82
2022/11/27 11:20:50;;;;;;;1999.90;999.90;;;;;;;;;;5085399;28;20221;-82
2022/11/27 11:23:22;;;;;;;1999.90;999.90;;;;;;;;;;5081900;28;20227;-84
2022/11/27 11:25:52;;;;;;;1999.90;999.90;;;;;;;;;;5112541;27;20239;-82
2022/11/27 11:28:20;;;;;;;1999.90;999.90;;;;;;;;;;5082790;28;20240;-83
2022/11/27 11:30:56;;;;;;;1999.90;999.90;;;;;;;;;;5108341;27;20264;-84
2022/11/27 11:33:27;;;;;;;1999.90;999.90;;;;;;;;;;5083483;28;20239;-82
2022/11/27 11:35:55;;;;;;;1999.90;999.90;;;;;;;;;;5079630;28;20234;-83
2022/11/27 11:38:26;;;;;;;1999.90;999.90;;;;;;;;;;5081640;28;20259;-82
2022/11/27 11:40:59;;;;;;;1999.90;999.90;;;;;;;;;;5082564;28;20216;-82
2022/11/27 11:43:27;;;;;;;1999.90;999.90;;;;;;;;;;5064385;28;20247;-82
2022/11/27 11:46:03;;;;;;;1999.90;999.90;;;;;;;;;;5082055;28;20254;-82
2022/11/27 11:48:32;;;;;;;1999.90;999.90;;;;;;;;;;5078392;28;20227;-82
2022/11/27 11:51:03;;;;;;;1999.90;999.90;;;;;;;;;;5107727;27;20250;-83
2022/11/27 11:53:33;;;;;;;1999.90;999.90;;;;;;;;;;5080114;28;20227;-83
2022/11/27 11:56:05;;;;;;;1999.90;999.90;;;;;;;;;;5059847;28;20221;-82
2022/11/27 11:58:38;;;;;;;1999.90;999.90;;;;;;;;;;5080924;28;20376;-81
2022/11/27 12:01:16;;;;;;;1999.90;999.90;;;;;;;;;;5085327;28;20222;-82
2022/11/27 12:04:02;;;;;;;1999.90;999.90;;;;;;;;;;5067775;28;20223;-83
2022/11/27 12:06:38;;;;;;;1999.90;999.90;;;;;;;;;;5082226;28;20234;-81
2022/11/27 12:09:12;;;;;;;1999.90;999.90;;;;;;;;;;5078386;28;20220;-84
2022/11/27 12:11:43;;;;;;;1999.90;999.90;;;;;;;;;;5078248;28;20231;-85
2022/11/27 12:14:16;;;;;;;1999.90;999.90;;;;;;;;;;5060388;28;20236;-81
2022/11/27 12:16:50;;;;;;;1999.90;999.90;;;;;;;;;;5074659;28;20239;-81
2022/11/27 12:19:32;;;;;;;1999.90;999.90;;;;;;;;;;5080056;28;20227;-79
2022/11/27 12:22:05;;;;;;;1999.90;999.90;;;;;;;;;;5062264;28;20236;-73
2022/11/27 12:24:41;;;;;;;1999.90;999.90;;;;;;;;;;5058621;28;20239;-72
2022/11/27 12:27:16;;;;;;;1999.90;999.90;;;;;;;;;;5060782;28;20228;-73
2022/11/27 12:29:51;;;;;;;1999.90;999.90;;;;;;;;;;5062551;28;20232;-73
2022/11/27 12:32:28;;;;;;;1999.90;999.90;;;;;;;;;;5057709;28;20228;-73
2022/11/27 12:35:04;;;;;;;1999.90;999.90;;;;;;;;;;5060863;28;20274;-73
2022/11/27 12:37:42;;;;;;;1999.90;999.90;;;;;;;;;;5061148;28;20231;-75
2022/11/27 12:40:18;;;;;;;1999.90;999.90;;;;;;;;;;5059634;28;20722;-76
2022/11/27 12:42:49;;;;;;;1999.90;999.90;;;;;;;;;;5064897;28;20301;-73
2022/11/27 12:45:19;;;;;;;1999.90;999.90;;;;;;;;;;5056513;28;20753;-74
2022/11/27 12:47:49;;;;;;;1999.90;999.90;;;;;;;;;;5057775;28;20235;-73
2022/11/27 12:50:22;;;;;;;1999.90;999.90;;;;;;;;;;5070732;28;20278;-74
2022/11/27 12:52:53;;;;;;;1999.90;999.90;;;;;;;;;;5062773;28;20232;-77
2022/11/27 12:55:25;;;;;;;1999.90;999.90;;;;;;;;;;5053855;28;20240;-73
2022/11/27 12:57:56;;;;;;;1999.90;999.90;;;;;;;;;;5060382;28;20228;-74
2022/11/27 13:00:25;;;;;;;1999.90;999.90;;;;;;;;;;5058899;28;20747;-74
2022/11/27 13:02:58;;;;;;;1999.90;999.90;;;;;;;;;;5051739;28;20263;-74
2022/11/27 13:05:29;;;;;;;1999.90;999.90;;;;;;;;;;5055414;28;20251;-74
2022/11/27 13:08:00;;;;;;;1999.90;999.90;;;;;;;;;;5058333;28;21034;-75
2022/11/27 13:10:32;;;;;;;1999.90;999.90;;;;;;;;;;5060029;28;20235;-74
2022/11/27 13:13:02;;;;;;;1999.90;999.90;;;;;;;;;;5056929;28;20847;-74
2022/11/27 13:15:32;;;;;;;1999.90;999.90;;;;;;;;;;5060677;28;20734;-75
2022/11/27 13:18:06;;;;;;;1999.90;999.90;;;;;;;;;;5058000;28;20235;-75
2022/11/27 13:20:38;;;;;;;1999.90;999.90;;;;;;;;;;5047536;28;20809;-75
2022/11/27 13:23:06;;;;;;;1999.90;999.90;;;;;;;;;;5053681;28;20231;-76
2022/11/27 13:25:34;;;;;;;1999.90;999.90;;;;;;;;;;5054773;28;20254;-76
2022/11/27 13:28:03;;;;;;;1999.90;999.90;;;;;;;;;;5056618;28;20236;-75
2022/11/27 13:30:33;;;;;;;1999.90;999.90;;;;;;;;;;5043554;28;20227;-75
2022/11/27 13:33:01;;;;;;;1999.90;999.90;;;;;;;;;;5043797;28;20980;-76
2022/11/27 13:35:30;;;;;;;1999.90;999.90;;;;;;;;;;5046027;28;20256;-76
2022/11/27 13:38:05;;;;;;;1999.90;999.90;;;;;;;;;;5068137;27;20351;-74
2022/11/27 13:40:37;;;;;;;1999.90;999.90;;;;;;;;;;5045936;28;20683;-74
2022/11/27 13:43:06;;;;;;;1999.90;999.90;;;;;;;;;;5042313;28;20243;-74
2022/11/27 13:45:36;;;;;;;1999.90;999.90;;;;;;;;;;5047727;28;20239;-75
2022/11/27 13:48:16;;;;;;;1999.90;999.90;;;;;;;;;;5031115;28;20239;-74
2022/11/27 13:50:45;;;;;;;1999.90;999.90;;;;;;;;;;5042742;28;20238;-75
2022/11/27 13:53:14;;;;;;;1999.90;999.90;;;;;;;;;;5047411;28;20239;-74
2022/11/27 13:55:52;;;;;;;1999.90;999.90;;;;;;;;;;5073576;27;20239;-74
2022/11/27 13:58:27;;;;;;;1999.90;999.90;;;;;;;;;;5040778;28;20617;-73